Time;durP1;ratioP1;P1;durP2;ratioP2;P2;SDS_P1;SDS_P2;PMS_P1;PMS_P2;Temp;Humidity;BMP_temperature;BMP_pressure;BME280_temperature;BME280_humidity;BME280_pressure;Samples;Min_cycle;Max_cycle;Signal;HPM_P1;HPM_P2
2022/04/14 00:01:54;;;;;;;35.80;28.00;;;;;;;10.21;99.28;101821.91;5034808;28;20455;-46
2022/04/14 00:04:22;;;;;;;37.60;29.73;;;;;;;10.18;99.14;101816.91;5034871;28;20937;-45
2022/04/14 00:06:51;;;;;;;42.77;29.00;;;;;;;10.15;99.35;101812.75;5034947;28;20523;-44
2022/04/14 00:09:19;;;;;;;40.27;29.20;;;;;;;10.15;99.29;101815.41;5034298;28;20464;-43
2022/04/14 00:11:46;;;;;;;39.73;29.47;;;;;;;10.11;99.13;101819.38;5034451;28;20452;-49
2022/04/14 00:14:14;;;;;;;38.03;30.60;;;;;;;10.09;99.31;101813.41;5034842;28;20440;-45
2022/04/14 00:16:42;;;;;;;34.30;27.60;;;;;;;10.07;99.25;101820.69;5034754;28;20833;-46
2022/04/14 00:19:09;;;;;;;39.77;30.23;;;;;;;10.05;99.30;101817.38;5034104;28;20562;-43
2022/04/14 00:21:37;;;;;;;44.23;30.90;;;;;;;10.05;99.42;101827.19;5034261;28;20458;-43
2022/04/14 00:24:07;;;;;;;45.20;33.27;;;;;;;10.02;99.27;101828.38;5034300;28;20439;-45
2022/04/14 00:26:34;;;;;;;46.27;30.80;;;;;;;10.00;99.42;101836.53;5034707;28;20428;-43
2022/04/14 00:29:02;;;;;;;41.00;29.23;;;;;;;9.97;99.30;101826.19;5034044;28;20806;-43
2022/04/14 00:31:30;;;;;;;44.27;31.17;;;;;;;9.96;99.29;101831.69;5034288;28;20805;-45
2022/04/14 00:33:58;;;;;;;45.03;33.70;;;;;;;9.93;99.68;101832.03;5034276;28;20497;-45
2022/04/14 00:36:25;;;;;;;45.87;29.80;;;;;;;9.94;99.25;101828.38;5034124;28;20479;-45
2022/04/14 00:38:53;;;;;;;45.50;33.10;;;;;;;9.93;99.30;101818.72;5033577;28;20477;-43
2022/04/14 00:41:22;;;;;;;38.73;30.90;;;;;;;9.91;99.32;101824.22;5033920;28;20828;-47
2022/04/14 00:43:52;;;;;;;48.97;33.27;;;;;;;9.89;99.26;101822.69;5034206;28;20794;-43
2022/04/14 00:46:20;;;;;;;50.00;33.47;;;;;;;9.89;99.18;101826.19;5038000;28;20434;-46
2022/04/14 00:48:50;;;;;;;48.40;33.03;;;;;;;9.86;99.36;101825.69;5047305;28;20458;-45
2022/04/14 00:51:17;;;;;;;48.87;34.93;;;;;;;9.86;99.38;101825.69;5053474;28;20987;-43
2022/04/14 00:53:45;;;;;;;43.00;32.17;;;;;;;9.84;99.35;101817.03;5053864;28;20958;-43
2022/04/14 00:56:12;;;;;;;43.53;34.80;;;;;;;9.81;99.29;101820.03;5053869;28;20828;-44
2022/04/14 00:58:41;;;;;;;39.53;31.23;;;;;;;9.80;99.29;101811.22;5053381;28;20469;-44
2022/04/14 01:01:10;;;;;;;44.87;33.90;;;;;;;9.79;99.34;101811.38;5053413;28;20459;-45
2022/04/14 01:03:38;;;;;;;39.33;31.90;;;;;;;9.77;99.36;101808.03;5053600;28;20782;-45
2022/04/14 01:06:06;;;;;;;40.87;31.87;;;;;;;9.73;99.58;101804.91;5053690;28;20789;-46
2022/04/14 01:08:35;;;;;;;45.70;34.13;;;;;;;9.71;99.51;101803.38;5053173;28;20465;-44
2022/04/14 01:11:04;;;;;;;50.70;35.23;;;;;;;9.69;99.41;101800.03;5053135;28;20455;-47
2022/04/14 01:13:31;;;;;;;45.13;34.73;;;;;;;9.66;99.44;101803.03;5053545;28;20446;-45
2022/04/14 01:16:01;;;;;;;41.93;33.43;;;;;;;9.64;99.47;101799.72;5053406;28;20439;-45
2022/04/14 01:18:28;;;;;;;45.50;36.20;;;;;;;9.60;99.47;101796.53;5052702;28;20478;-45
2022/04/14 01:20:56;;;;;;;50.60;34.70;;;;;;;9.59;99.59;101797.53;5053270;28;20451;-43
2022/04/14 01:23:34;;;;;;;49.13;36.90;;;;;;;9.56;99.48;101797.06;5053346;28;20435;-44
2022/04/14 01:26:02;;;;;;;47.00;34.93;;;;;;;9.55;99.49;101800.69;5053317;28;20770;-45
2022/04/14 01:28:30;;;;;;;51.60;35.37;;;;;;;9.53;99.48;101808.03;5052668;28;20473;-46
2022/04/14 01:30:58;;;;;;;45.90;34.30;;;;;;;9.50;99.52;101809.16;5052779;28;20816;-45
2022/04/14 01:33:25;;;;;;;51.63;36.70;;;;;;;9.48;99.55;101805.00;5053062;28;21081;-43
2022/04/14 01:35:53;;;;;;;50.03;35.00;;;;;;;9.46;99.51;101807.84;5052476;28;20442;-43
2022/04/14 01:38:20;;;;;;;48.20;34.67;;;;;;;9.44;99.50;101805.31;5052578;28;20463;-43
2022/04/14 01:40:49;;;;;;;55.67;35.47;;;;;;;9.45;99.28;101803.50;5052614;28;20466;-43
2022/04/14 01:43:17;;;;;;;43.83;34.90;;;;;;;9.43;99.46;101810.84;5052867;28;20443;-45
2022/04/14 01:45:50;;;;;;;54.60;36.77;;;;;;;9.42;99.62;101811.81;5048609;28;20438;-45
2022/04/14 01:48:18;;;;;;;46.70;33.23;;;;;;;9.40;99.41;101812.00;5044263;28;20455;-47
2022/04/14 01:50:46;;;;;;;46.57;35.00;;;;;;;9.40;99.57;101806.66;5052535;28;20466;-48
2022/04/14 01:53:14;;;;;;;57.70;36.83;;;;;;;9.39;99.46;101805.00;5052716;28;20952;-46
2022/04/14 01:55:41;;;;;;;46.43;33.90;;;;;;;9.38;99.55;101800.66;5052557;28;20432;-48
2022/04/14 01:58:10;;;;;;;47.73;34.67;;;;;;;9.38;99.38;101800.66;5052243;28;20503;-43
2022/04/14 02:00:38;;;;;;;48.73;34.23;;;;;;;9.37;99.29;101795.50;5052551;28;20447;-46
2022/04/14 02:03:05;;;;;;;50.10;35.27;;;;;;;9.37;99.25;101796.34;5052692;28;20853;-46
2022/04/14 02:05:33;;;;;;;54.63;36.97;;;;;;;9.35;99.33;101805.47;5052496;28;20427;-46
2022/04/14 02:08:01;;;;;;;50.23;35.83;;;;;;;9.33;99.27;101804.81;5052061;28;20441;-46
2022/04/14 02:10:28;;;;;;;52.53;33.83;;;;;;;9.31;99.61;101794.34;5052037;28;20427;-45
2022/04/14 02:12:58;;;;;;;47.57;35.53;;;;;;;9.30;99.27;101805.13;5052558;28;20431;-45
2022/04/14 02:15:27;;;;;;;45.53;34.63;;;;;;;9.29;99.20;101798.13;5052484;28;20435;-45
2022/04/14 02:17:55;;;;;;;47.20;35.83;;;;;;;9.28;99.01;101797.31;5051628;28;20475;-44
2022/04/14 02:20:22;;;;;;;53.50;36.37;;;;;;;9.27;99.40;101808.97;5051967;28;20438;-45
2022/04/14 02:22:50;;;;;;;44.07;33.17;;;;;;;9.27;99.13;101811.63;5052184;28;20431;-44
2022/04/14 02:25:18;;;;;;;41.10;34.10;;;;;;;9.27;99.07;101816.09;5052389;28;20431;-45
2022/04/14 02:27:45;;;;;;;45.83;33.60;;;;;;;9.28;98.79;101817.78;5052313;28;20423;-46
2022/04/14 02:30:13;;;;;;;43.40;33.00;;;;;;;9.30;99.06;101821.09;5051644;28;20466;-48
2022/04/14 02:32:43;;;;;;;52.10;34.47;;;;;;;9.29;98.93;101817.59;5052030;28;21104;-43
2022/04/14 02:35:11;;;;;;;45.33;35.43;;;;;;;9.32;98.87;101819.09;5051867;28;20958;-45
2022/04/14 02:37:38;;;;;;;51.03;37.70;;;;;;;9.32;98.70;101809.28;5051804;28;20546;-45
2022/04/14 02:40:08;;;;;;;46.83;34.10;;;;;;;9.35;98.59;101808.97;5051418;28;20805;-43
2022/04/14 02:42:35;;;;;;;53.30;35.90;;;;;;;9.37;98.45;101800.84;5051559;28;20458;-45
2022/04/14 02:45:04;;;;;;;61.90;37.40;;;;;;;9.40;98.22;101801.34;5048524;28;20432;-43
2022/04/14 02:47:31;;;;;;;47.93;35.70;;;;;;;9.42;98.10;101794.03;5042277;28;20431;-45
2022/04/14 02:50:00;;;;;;;53.90;36.97;;;;;;;9.44;98.13;101789.34;5051168;28;20865;-43
2022/04/14 02:52:28;;;;;;;48.97;34.43;;;;;;;9.47;98.18;101800.69;5051691;28;20455;-44
2022/04/14 02:54:56;;;;;;;52.27;36.87;;;;;;;9.46;98.13;101791.88;5051908;28;20458;-44
2022/04/14 02:57:24;;;;;;;55.73;37.17;;;;;;;9.47;98.08;101795.38;5051602;28;20554;-44
2022/04/14 02:59:52;;;;;;;46.27;33.90;;;;;;;9.45;98.20;101803.50;5051164;28;20463;-43
2022/04/14 03:02:20;;;;;;;54.60;35.47;;;;;;;9.47;98.27;101796.19;5051332;28;20462;-43
2022/04/14 03:04:47;;;;;;;46.40;35.67;;;;;;;9.50;97.85;101797.72;5051831;28;20432;-43
2022/04/14 03:07:16;;;;;;;55.50;38.50;;;;;;;9.50;97.29;101793.19;5051764;28;20438;-43
2022/04/14 03:09:44;;;;;;;54.87;38.43;;;;;;;9.53;96.83;101790.19;5051067;28;20447;-45
2022/04/14 03:12:12;;;;;;;52.83;35.70;;;;;;;9.58;96.96;101792.38;5051305;28;20455;-43
2022/04/14 03:14:39;;;;;;;55.63;36.50;;;;;;;9.61;96.98;101792.91;5051540;28;20435;-46
2022/04/14 03:17:07;;;;;;;60.30;37.60;;;;;;;9.65;96.41;101794.22;5051386;28;20435;-46
2022/04/14 03:19:36;;;;;;;51.60;37.77;;;;;;;9.68;96.37;101795.69;5051033;28;20463;-47
2022/04/14 03:22:04;;;;;;;50.63;36.30;;;;;;;9.71;96.36;101782.91;5051074;28;20455;-46
2022/04/14 03:24:33;;;;;;;47.43;34.07;;;;;;;9.74;96.48;101787.88;5051461;28;20442;-48
2022/04/14 03:27:01;;;;;;;49.40;39.10;;;;;;;9.77;96.61;101781.41;5051527;28;20434;-44
2022/04/14 03:29:32;;;;;;;48.40;36.47;;;;;;;9.79;96.65;101779.41;5050901;28;20529;-45
2022/04/14 03:32:00;;;;;;;55.07;38.93;;;;;;;9.81;96.70;101772.09;5051366;28;20457;-45
2022/04/14 03:34:27;;;;;;;55.33;38.60;;;;;;;9.83;96.58;101778.91;5051422;28;20431;-48
2022/04/14 03:36:55;;;;;;;54.77;40.23;;;;;;;9.84;96.68;101777.06;5051429;28;20439;-45
2022/04/14 03:39:27;;;;;;;52.10;39.20;;;;;;;9.86;96.33;101775.06;5050863;28;20463;-45
2022/04/14 03:41:56;;;;;;;56.20;38.93;;;;;;;9.88;96.70;101787.25;5050768;28;20554;-45
2022/04/14 03:44:24;;;;;;;49.63;39.03;;;;;;;9.90;96.88;101779.06;5051379;28;20435;-44
2022/04/14 03:46:52;;;;;;;58.80;38.43;;;;;;;9.92;96.56;101779.72;5041123;28;20439;-44
2022/04/14 03:49:19;;;;;;;49.50;36.63;;;;;;;9.94;96.78;101778.59;5048955;28;20521;-46
2022/04/14 03:51:47;;;;;;;52.63;38.87;;;;;;;9.98;96.40;101779.06;5050972;28;20459;-45
2022/04/14 03:54:14;;;;;;;58.77;40.70;;;;;;;10.00;96.63;101775.22;5051251;28;20436;-45
2022/04/14 03:56:42;;;;;;;57.00;37.60;;;;;;;10.04;96.67;101778.41;5051033;28;20431;-46
2022/04/14 03:59:13;;;;;;;61.30;42.97;;;;;;;10.05;96.67;101774.75;5053199;28;20467;-43
2022/04/14 04:01:41;;;;;;;56.47;41.03;;;;;;;10.07;96.84;101772.72;5054497;28;20964;-43
2022/04/14 04:04:08;;;;;;;60.83;38.00;;;;;;;10.09;96.88;101769.91;5054791;28;20468;-43
2022/04/14 04:06:36;;;;;;;54.37;40.50;;;;;;;10.11;97.31;101763.41;5054735;28;20431;-43
2022/04/14 04:09:03;;;;;;;57.70;41.83;;;;;;;10.12;97.08;101756.25;5054103;28;20459;-47
2022/04/14 04:11:31;;;;;;;50.57;37.03;;;;;;;10.13;97.23;101766.75;5054694;28;20457;-44
2022/04/14 04:13:58;;;;;;;56.30;39.10;;;;;;;10.15;97.45;101769.28;5054832;28;20431;-48
2022/04/14 04:16:28;;;;;;;57.00;40.73;;;;;;;10.15;97.52;101774.59;5054675;28;20903;-43
2022/04/14 04:18:56;;;;;;;51.83;39.97;;;;;;;10.15;97.59;101764.78;5053927;28;21069;-46
2022/04/14 04:21:25;;;;;;;52.60;40.20;;;;;;;10.18;97.47;101763.59;5054104;28;20455;-44
2022/04/14 04:23:52;;;;;;;58.17;40.00;;;;;;;10.20;97.48;101780.25;5054628;28;20443;-43
2022/04/14 04:26:20;;;;;;;50.00;37.57;;;;;;;10.23;97.30;101787.91;5054438;28;20443;-45
2022/04/14 04:28:48;;;;;;;57.10;38.73;;;;;;;10.21;98.13;101790.75;5054021;28;20829;-44
2022/04/14 04:31:16;;;;;;;55.10;38.83;;;;;;;10.21;97.75;101785.44;5054153;28;20458;-43
2022/04/14 04:33:45;;;;;;;50.33;36.53;;;;;;;10.21;97.76;101788.09;5054258;28;20435;-45
2022/04/14 04:36:12;;;;;;;58.63;37.20;;;;;;;10.24;97.65;101793.09;5054104;28;20435;-49
2022/04/14 04:38:40;;;;;;;58.83;40.97;;;;;;;10.26;97.59;101787.56;5053837;28;20489;-45
2022/04/14 04:41:08;;;;;;;58.00;39.90;;;;;;;10.26;97.53;101787.56;5053961;28;20463;-45
2022/04/14 04:43:36;;;;;;;54.73;40.00;;;;;;;10.27;97.49;101794.59;5054099;28;20435;-46
2022/04/14 04:46:04;;;;;;;59.80;38.87;;;;;;;10.28;97.65;101790.88;5049804;28;20534;-46
2022/04/14 04:48:31;;;;;;;58.83;40.03;;;;;;;10.29;97.51;101793.41;5045099;28;21015;-43
2022/04/14 04:51:00;;;;;;;53.43;39.10;;;;;;;10.31;97.46;101793.22;5053605;28;20825;-45
2022/04/14 04:53:28;;;;;;;59.23;41.70;;;;;;;10.32;97.22;101798.41;5054072;28;20435;-43
2022/04/14 04:55:56;;;;;;;50.73;38.13;;;;;;;10.34;97.42;101788.38;5053956;28;20437;-43
2022/04/14 04:58:23;;;;;;;54.30;38.73;;;;;;;10.38;97.32;101792.38;5053328;28;20466;-46
2022/04/14 05:00:53;;;;;;;65.10;40.27;;;;;;;10.42;97.41;101792.88;5053439;28;20452;-43
2022/04/14 05:03:21;;;;;;;52.90;37.63;;;;;;;10.46;97.22;101796.84;5053550;28;20438;-45
2022/04/14 05:05:49;;;;;;;56.67;40.37;;;;;;;10.47;97.58;101787.88;5053852;28;20489;-45
2022/04/14 05:08:19;;;;;;;68.87;40.60;;;;;;;10.50;97.40;101791.03;5053279;28;20802;-43
2022/04/14 05:10:46;;;;;;;57.67;40.00;;;;;;;10.54;97.24;101789.66;5052413;28;20453;-43
2022/04/14 05:13:14;;;;;;;54.50;40.83;;;;;;;10.53;97.74;101782.69;5053555;28;20439;-43
2022/04/14 05:15:42;;;;;;;62.50;41.60;;;;;;;10.58;97.57;101798.16;5053291;28;20443;-47
2022/04/14 05:18:10;;;;;;;48.13;36.77;;;;;;;10.61;97.97;101805.00;5053078;28;20833;-48
2022/04/14 05:20:38;;;;;;;56.50;38.37;;;;;;;10.61;98.23;101807.66;5073978;22;20483;-44
2022/04/14 05:23:08;;;;;;;60.00;41.63;;;;;;;10.61;98.27;101808.50;5025671;28;20790;-46
2022/04/14 05:25:40;;;;;;;64.80;39.90;;;;;;;10.64;98.44;101799.31;5013800;28;20440;-46
2022/04/14 05:28:07;;;;;;;54.17;39.47;;;;;;;10.69;98.27;101795.16;5013088;28;20453;-42
2022/04/14 05:30:35;;;;;;;52.07;37.90;;;;;;;10.76;98.38;101803.28;5013098;28;20471;-42
2022/04/14 05:33:03;;;;;;;53.10;37.43;;;;;;;10.76;98.63;101806.78;5013634;28;20437;-45
2022/04/14 05:35:31;;;;;;;63.77;38.87;;;;;;;10.77;98.63;101808.47;5013431;28;21030;-46
2022/04/14 05:37:58;;;;;;;69.13;42.97;;;;;;;10.78;99.04;101807.44;5013040;28;20435;-45
2022/04/14 05:40:26;;;;;;;62.80;43.00;;;;;;;10.77;99.57;101815.63;5013115;28;20469;-44
2022/04/14 05:42:55;;;;;;;66.00;39.43;;;;;;;10.73;99.35;101823.13;5013337;28;20444;-42
2022/04/14 05:45:22;;;;;;;68.87;42.37;;;;;;;10.69;99.42;101824.50;5016803;28;20963;-42
2022/04/14 05:47:50;;;;;;;64.70;42.20;;;;;;;10.69;99.53;101829.84;5044158;28;20430;-46
2022/04/14 05:50:20;;;;;;;70.93;42.90;;;;;;;10.68;99.29;101825.50;5052675;28;20801;-42
2022/04/14 05:52:47;;;;;;;67.30;43.37;;;;;;;10.61;99.44;101829.84;5052826;28;20435;-42
2022/04/14 05:55:15;;;;;;;67.90;43.00;;;;;;;10.57;99.41;101824.00;5052611;28;20441;-43
2022/04/14 05:57:42;;;;;;;63.63;43.67;;;;;;;10.56;99.44;101837.53;5052723;28;20954;-46
2022/04/14 06:00:13;;;;;;;66.70;42.83;;;;;;;10.52;99.28;101837.03;5052005;28;20988;-43
2022/04/14 06:02:41;;;;;;;73.30;42.37;;;;;;;10.55;99.16;101838.50;5052565;28;20419;-42
2022/04/14 06:05:09;;;;;;;73.30;45.50;;;;;;;10.55;99.45;101836.69;5052914;28;20801;-45
2022/04/14 06:07:37;;;;;;;74.40;42.63;;;;;;;10.61;98.98;101829.00;5052476;28;20438;-42
2022/04/14 06:10:05;;;;;;;74.77;43.10;;;;;;;10.64;99.07;101829.50;5052004;28;20465;-43
2022/04/14 06:12:32;;;;;;;68.27;42.00;;;;;;;10.69;99.17;101837.00;5052840;28;20454;-45
2022/04/14 06:15:00;;;;;;;62.57;41.43;;;;;;;10.77;98.95;101823.63;5052544;28;20441;-43
2022/04/14 06:17:29;;;;;;;68.83;41.80;;;;;;;10.83;99.06;101828.28;5052456;28;20433;-43
2022/04/14 06:19:56;;;;;;;59.13;37.47;;;;;;;10.90;99.30;101830.06;5051758;28;20482;-43
2022/04/14 06:22:24;;;;;;;67.90;38.80;;;;;;;11.00;99.37;101835.22;5051662;28;20459;-44
2022/04/14 06:24:52;;;;;;;59.50;38.53;;;;;;;10.99;99.83;101830.91;5052491;28;20431;-44
2022/04/14 06:27:19;;;;;;;57.87;36.93;;;;;;;11.06;99.96;101831.84;5052407;28;20438;-45
2022/04/14 06:29:47;;;;;;;54.47;35.97;;;;;;;11.17;99.87;101846.69;5051664;28;20470;-44
2022/04/14 06:32:14;;;;;;;64.17;37.70;;;;;;;11.23;99.94;101840.66;5051939;28;20821;-45
2022/04/14 06:34:44;;;;;;;59.60;35.73;;;;;;;11.40;99.84;101848.41;5052012;28;20443;-44
2022/04/14 06:37:12;;;;;;;55.30;35.20;;;;;;;11.51;99.84;101850.66;5052296;28;20431;-43
2022/04/14 06:39:40;;;;;;;63.33;40.77;;;;;;;11.61;99.88;101845.09;5051492;28;20475;-42
2022/04/14 06:42:08;;;;;;;55.53;38.37;;;;;;;11.65;99.34;101849.06;5051838;28;20455;-43
2022/04/14 06:44:35;;;;;;;57.60;36.83;;;;;;;11.72;98.97;101850.06;5051935;28;20439;-45
2022/04/14 06:47:03;;;;;;;66.00;39.07;;;;;;;11.75;98.28;101849.72;5040178;28;20439;-47
2022/04/14 06:49:31;;;;;;;60.37;38.77;;;;;;;11.86;97.96;101857.31;5050759;28;20808;-45
2022/04/14 06:52:01;;;;;;;55.60;36.90;;;;;;;11.92;97.75;101853.94;5051455;28;20981;-43
2022/04/14 06:54:29;;;;;;;47.00;35.53;;;;;;;12.16;96.47;101855.56;5051827;28;20978;-43
2022/04/14 06:56:56;;;;;;;62.27;37.60;;;;;;;12.25;95.07;101853.66;5051866;28;20796;-43
2022/04/14 06:59:24;;;;;;;54.43;36.10;;;;;;;12.35;94.19;101844.38;5051447;28;20801;-42
2022/04/14 07:01:54;;;;;;;50.73;37.33;;;;;;;12.40;93.34;101852.69;5051310;28;21037;-44
2022/04/14 07:04:21;;;;;;;51.40;37.67;;;;;;;12.53;93.21;101852.06;5051673;28;20525;-45
2022/04/14 07:06:49;;;;;;;56.57;36.97;;;;;;;12.76;92.78;101866.22;5051852;28;20432;-44
2022/04/14 07:09:18;;;;;;;50.57;34.63;;;;;;;12.90;92.72;101860.06;5051045;28;20463;-43
2022/04/14 07:11:46;;;;;;;47.03;34.60;;;;;;;12.98;91.54;101848.41;5051767;28;20455;-44
2022/04/14 07:14:14;;;;;;;53.53;34.97;;;;;;;13.25;91.07;101843.25;5051640;28;20441;-44
2022/04/14 07:16:42;;;;;;;42.77;32.33;;;;;;;13.40;89.39;101845.91;5051480;28;20438;-44
2022/04/14 07:19:09;;;;;;;48.20;33.07;;;;;;;13.73;88.98;101844.41;5051123;28;20455;-43
2022/04/14 07:21:37;;;;;;;46.90;33.50;;;;;;;13.80;83.78;101836.41;5051025;28;21001;-44
2022/04/14 07:24:05;;;;;;;40.00;33.00;;;;;;;14.20;85.39;101837.63;5051515;28;20435;-45
2022/04/14 07:26:34;;;;;;;44.00;34.00;;;;;;;14.70;83.15;101840.09;5051546;28;20442;-46
2022/04/14 07:29:02;;;;;;;39.30;33.60;;;;;;;15.13;80.15;101840.75;5050922;28;20471;-47
2022/04/14 07:31:31;;;;;;;47.00;37.63;;;;;;;15.20;74.45;101833.53;5051401;28;20443;-47
2022/04/14 07:33:59;;;;;;;48.53;37.37;;;;;;;15.33;73.75;101835.47;5054135;28;20439;-43
2022/04/14 07:36:27;;;;;;;42.77;33.80;;;;;;;15.45;72.72;101825.78;5055586;28;20871;-44
2022/04/14 07:39:03;;;;;;;37.13;31.20;;;;;;;15.58;73.03;101823.19;5055044;28;20466;-43
2022/04/14 07:41:31;;;;;;;37.07;31.77;;;;;;;15.54;72.04;101821.91;5055000;28;20475;-49
2022/04/14 07:44:00;;;;;;;46.33;33.40;;;;;;;15.68;72.80;101810.16;5055448;28;20450;-43
2022/04/14 07:46:27;;;;;;;43.30;33.37;;;;;;;15.83;73.80;101821.56;5048019;28;20522;-47
2022/04/14 07:48:55;;;;;;;41.03;30.97;;;;;;;15.76;71.97;101817.22;5049146;28;20473;-50
2022/04/14 07:51:23;;;;;;;32.00;28.10;;;;;;;15.77;70.94;101814.28;5054804;28;20451;-46
2022/04/14 07:53:52;;;;;;;35.70;30.10;;;;;;;15.95;71.71;101824.47;5055213;28;20441;-42
2022/04/14 07:56:22;;;;;;;35.20;29.90;;;;;;;16.25;72.94;101824.88;5054807;28;20466;-47
2022/04/14 07:58:49;;;;;;;32.93;29.23;;;;;;;16.48;71.35;101817.22;5054483;28;20458;-46
2022/04/14 08:01:19;;;;;;;35.10;29.33;;;;;;;16.67;69.39;101813.69;5054692;28;20482;-45
2022/04/14 08:03:47;;;;;;;39.80;28.40;;;;;;;16.94;68.13;101811.75;5054860;28;20435;-43
2022/04/14 08:06:15;;;;;;;33.60;27.07;;;;;;;17.19;68.36;101815.41;5054663;28;20434;-45
2022/04/14 08:08:43;;;;;;;34.83;29.47;;;;;;;17.26;66.27;101804.59;5054250;28;20554;-43
2022/04/14 08:11:11;;;;;;;30.60;26.97;;;;;;;17.21;65.06;101807.91;5054533;28;20451;-43
2022/04/14 08:13:41;;;;;;;29.87;26.53;;;;;;;17.12;64.79;101807.34;5054632;28;20851;-47
2022/04/14 08:16:09;;;;;;;28.17;25.13;;;;;;;17.00;64.52;101808.19;5054839;28;20498;-44
2022/04/14 08:18:40;;;;;;;27.13;23.90;;;;;;;17.10;64.73;101813.97;5054144;28;20491;-45
2022/04/14 08:21:08;;;;;;;31.80;25.40;;;;;;;17.27;65.95;101807.06;5053798;28;20482;-43
2022/04/14 08:23:39;;;;;;;26.87;24.40;;;;;;;17.09;62.72;101810.44;5054468;28;20446;-45
2022/04/14 08:26:09;;;;;;;25.40;22.57;;;;;;;16.96;64.00;101807.00;5055027;28;20434;-43
2022/04/14 08:28:43;;;;;;;25.47;22.83;;;;;;;16.89;64.56;101816.94;5053842;28;20855;-43
2022/04/14 08:31:12;;;;;;;23.67;21.17;;;;;;;16.94;64.96;101798.28;5054062;28;20458;-44
2022/04/14 08:33:42;;;;;;;24.90;22.40;;;;;;;16.88;63.77;101797.25;5054252;28;20435;-44
2022/04/14 08:36:15;;;;;;;29.63;23.93;;;;;;;16.70;63.64;101805.19;5054226;28;20944;-43
2022/04/14 08:38:44;;;;;;;25.90;23.10;;;;;;;16.79;64.69;101800.41;5053728;28;20545;-46
2022/04/14 08:41:14;;;;;;;23.87;21.47;;;;;;;16.92;64.09;101809.28;5053941;28;20845;-43
2022/04/14 08:43:48;;;;;;;21.87;19.37;;;;;;;16.95;62.91;101806.16;5053900;28;20435;-43
2022/04/14 08:46:16;;;;;;;20.83;18.93;;;;;;;16.72;63.27;101802.28;5052850;28;20437;-43
2022/04/14 08:48:50;;;;;;;24.80;21.47;;;;;;;16.89;63.71;101807.00;5053700;28;20808;-43
2022/04/14 08:51:20;;;;;;;22.23;20.17;;;;;;;17.03;63.21;101813.16;5053994;28;20447;-45
2022/04/14 08:53:49;;;;;;;23.43;21.10;;;;;;;17.02;62.91;101806.94;5053990;28;20436;-47
2022/04/14 08:56:23;;;;;;;22.10;20.00;;;;;;;17.23;62.93;101810.41;5053935;28;20430;-43
2022/04/14 08:58:53;;;;;;;22.10;20.20;;;;;;;17.44;62.29;101812.78;5053285;28;20462;-45
2022/04/14 09:01:21;;;;;;;22.90;20.90;;;;;;;17.32;62.99;101817.22;5053681;28;20475;-43
2022/04/14 09:03:56;;;;;;;21.80;19.80;;;;;;;17.17;62.47;101801.31;5053957;28;20445;-42
2022/04/14 09:06:27;;;;;;;24.00;21.90;;;;;;;17.10;63.21;101811.28;5053836;28;20435;-43
2022/04/14 09:08:57;;;;;;;23.03;20.80;;;;;;;17.50;63.00;101801.16;5053116;28;20459;-47
2022/04/14 09:11:25;;;;;;;23.03;20.93;;;;;;;17.58;62.03;101806.31;5053250;28;20621;-43
2022/04/14 09:13:54;;;;;;;23.13;21.07;;;;;;;17.83;61.09;101798.25;5053768;28;20435;-43
2022/04/14 09:16:22;;;;;;;22.87;20.83;;;;;;;18.10;61.37;101797.81;5053617;28;20441;-47
2022/04/14 09:18:50;;;;;;;23.03;20.93;;;;;;;18.30;60.26;101799.53;5052997;28;20497;-47
2022/04/14 09:21:19;;;;;;;23.33;21.53;;;;;;;18.08;60.17;101796.38;5052918;28;20484;-46
2022/04/14 09:23:50;;;;;;;22.53;20.63;;;;;;;17.78;60.87;101804.31;5053264;28;20437;-44
2022/04/14 09:26:23;;;;;;;21.67;19.97;;;;;;;17.66;60.25;101808.75;5053160;28;20946;-44
2022/04/14 09:29:02;;;;;;;25.27;23.00;;;;;;;17.79;60.55;101814.06;5053077;28;20458;-44
2022/04/14 09:31:31;;;;;;;24.40;22.00;;;;;;;18.00;61.14;101804.78;5052998;28;20451;-43
2022/04/14 09:33:59;;;;;;;23.43;21.23;;;;;;;18.26;60.48;101809.94;5052958;28;20427;-44
2022/04/14 09:36:28;;;;;;;23.30;21.00;;;;;;;17.95;59.32;101807.31;5053129;28;20439;-44
2022/04/14 09:38:58;;;;;;;22.63;20.80;;;;;;;17.71;60.29;101813.50;5052719;28;20463;-43
2022/04/14 09:41:33;;;;;;;23.90;21.60;;;;;;;17.20;61.62;101806.28;5052692;28;20848;-44
2022/04/14 09:44:05;;;;;;;23.47;21.57;;;;;;;16.98;63.05;101805.72;5053034;28;20441;-43
2022/04/14 09:46:33;;;;;;;25.00;22.60;;;;;;;17.60;62.92;101805.03;5045394;28;20424;-45
2022/04/14 09:49:08;;;;;;;24.73;22.43;;;;;;;17.93;62.25;101798.59;5047846;28;20810;-45
2022/04/14 09:51:39;;;;;;;25.60;23.27;;;;;;;18.14;60.42;101790.09;5052592;28;20990;-43
2022/04/14 09:54:11;;;;;;;21.80;20.10;;;;;;;18.54;59.64;101785.19;5052924;28;20435;-46
2022/04/14 09:56:42;;;;;;;21.20;19.40;;;;;;;18.82;57.16;101782.78;5052798;28;20431;-44
2022/04/14 09:59:11;;;;;;;18.57;17.07;;;;;;;18.78;57.13;101782.44;5052162;28;20470;-43
2022/04/14 10:01:39;;;;;;;17.57;15.87;;;;;;;18.67;58.00;101785.03;5052550;28;20475;-44
2022/04/14 10:04:07;;;;;;;17.97;16.17;;;;;;;18.74;56.56;101778.53;5052669;28;20458;-48
2022/04/14 10:06:36;;;;;;;17.47;15.93;;;;;;;18.65;55.72;101781.75;5052472;28;20960;-46
2022/04/14 10:09:04;;;;;;;16.20;14.60;;;;;;;18.32;55.77;101779.34;5052073;28;20459;-46
2022/04/14 10:11:34;;;;;;;15.60;14.10;;;;;;;18.29;56.03;101776.28;5052073;28;20447;-47
2022/04/14 10:14:13;;;;;;;16.27;14.80;;;;;;;18.12;57.85;101787.66;5052543;28;20431;-43
2022/04/14 10:16:41;;;;;;;15.97;14.27;;;;;;;17.94;57.65;101787.59;5052634;28;20441;-46
2022/04/14 10:19:09;;;;;;;16.27;14.90;;;;;;;17.87;59.12;101789.50;5051883;28;20470;-44
2022/04/14 10:21:39;;;;;;;16.70;15.27;;;;;;;17.91;59.27;101793.41;5051630;28;20884;-45
2022/04/14 10:24:07;;;;;;;17.87;16.37;;;;;;;17.61;59.43;101787.00;5052143;28;20431;-43
2022/04/14 10:26:41;;;;;;;16.87;15.53;;;;;;;16.95;60.26;101798.06;5052185;28;21014;-46
2022/04/14 10:29:12;;;;;;;20.70;18.60;;;;;;;16.55;61.80;101800.03;5051436;28;20995;-44
2022/04/14 10:31:41;;;;;;;21.07;19.03;;;;;;;16.12;63.09;101800.69;5051755;28;20971;-46
2022/04/14 10:34:09;;;;;;;21.23;19.03;;;;;;;15.90;64.75;101806.25;5052026;28;20948;-43
2022/04/14 10:36:39;;;;;;;23.00;20.50;;;;;;;15.92;65.52;101808.72;5051976;28;20442;-43
2022/04/14 10:39:12;;;;;;;20.83;18.93;;;;;;;16.21;64.90;101794.88;5051686;28;20469;-48
2022/04/14 10:41:42;;;;;;;19.27;17.50;;;;;;;16.38;64.15;101801.50;5051841;28;20440;-43
2022/04/14 10:44:10;;;;;;;19.60;17.70;;;;;;;16.40;63.59;101796.72;5051964;28;20446;-46
2022/04/14 10:46:41;;;;;;;20.50;18.40;;;;;;;16.61;64.09;101792.19;5043667;28;20949;-43
2022/04/14 10:49:13;;;;;;;20.57;18.57;;;;;;;16.83;64.28;101799.78;5047722;28;20459;-47
2022/04/14 10:51:43;;;;;;;17.90;16.30;;;;;;;16.90;62.09;101810.53;5051709;28;20458;-44
2022/04/14 10:54:12;;;;;;;20.27;18.13;;;;;;;16.97;63.48;101805.94;5051727;28;20966;-46
2022/04/14 10:56:51;;;;;;;18.80;16.97;;;;;;;16.94;62.06;101804.50;5051661;28;20958;-44
2022/04/14 10:59:21;;;;;;;20.60;18.27;;;;;;;17.23;62.05;101807.72;5051226;28;20870;-48
2022/04/14 11:02:02;;;;;;;17.43;15.73;;;;;;;17.48;60.66;101808.59;5051343;28;20523;-45
2022/04/14 11:04:34;;;;;;;19.80;17.80;;;;;;;17.12;60.78;101815.41;5051955;28;20473;-46
2022/04/14 11:07:10;;;;;;;19.67;17.57;;;;;;;17.22;61.92;101814.13;5051609;28;20438;-43
2022/04/14 11:09:52;;;;;;;19.73;17.63;;;;;;;17.40;61.73;101808.88;5050881;28;20476;-44
2022/04/14 11:12:22;;;;;;;19.90;16.70;;;;;;;17.77;61.94;101808.03;5051368;28;20457;-43
2022/04/14 11:14:52;;;;;;;22.17;16.87;;;;;;;18.01;59.98;101822.63;5051797;28;20445;-44
2022/04/14 11:18:00;;;;;;;22.50;18.23;;;;;;;17.95;59.70;101812.72;5051997;28;20796;-43
2022/04/14 11:20:56;;;;;;;22.20;16.47;;;;;;;17.78;61.03;101815.09;5050346;28;20459;-43